Time;durP1;ratioP1;P1;durP2;ratioP2;P2;SDS_P1;SDS_P2;PMS_P1;PMS_P2;Temp;Humidity;BMP_temperature;BMP_pressure;BME280_temperature;BME280_humidity;BME280_pressure;Samples;Min_cycle;Max_cycle;Signal;HPM_P1;HPM_P2
2021/08/22 00:02:16;;;;;;;191.33;51.13;;;19.50;99.90;;;;;;5093889;28;20974;-71
2021/08/22 00:04:44;;;;;;;187.37;56.73;;;19.50;99.90;;;;;;5095197;28;20471;-70
2021/08/22 00:07:12;;;;;;;9.05;8.35;;;19.50;99.90;;;;;;5094028;28;20437;-70
2021/08/22 00:09:41;;;;;;;141.23;46.43;;;19.60;99.90;;;;;;5095361;28;20212;-70
2021/08/22 00:12:10;;;;;;;97.10;35.20;;;19.60;99.90;;;;;;5095507;28;20436;-70
2021/08/22 00:14:38;;;;;;;153.63;44.70;;;19.50;99.90;;;;;;5092828;28;20241;-70
2021/08/22 00:17:06;;;;;;;179.13;48.63;;;19.50;99.90;;;;;;5094933;28;20455;-70
2021/08/22 00:19:35;;;;;;;121.03;44.20;;;19.50;99.90;;;;;;5095191;28;20560;-70
2021/08/22 00:22:03;;;;;;;158.07;47.97;;;19.40;99.90;;;;;;5094918;28;20428;-70
2021/08/22 00:24:31;;;;;;;217.57;51.50;;;19.40;99.90;;;;;;5094302;28;20490;-70
2021/08/22 00:26:59;;;;;;;162.53;47.13;;;19.40;99.90;;;;;;5095053;28;20433;-70
2021/08/22 00:29:29;;;;;;;181.57;46.83;;;19.40;99.90;;;;;;5093581;28;20802;-70
2021/08/22 00:31:57;;;;;;;66.28;24.23;;;19.40;99.90;;;;;;5094619;28;20519;-70
2021/08/22 00:34:25;;;;;;;149.13;41.93;;;19.40;99.90;;;;;;5092728;28;20986;-69
2021/08/22 00:36:54;;;;;;;184.20;44.57;;;19.30;99.90;;;;;;5093422;28;20451;-69
2021/08/22 00:39:23;;;;;;;9.20;8.40;;;19.30;99.90;;;;;;5093913;28;20448;-70
2021/08/22 00:41:51;;;;;;;143.33;41.57;;;19.40;99.90;;;;;;5094524;28;20197;-70
2021/08/22 00:44:19;;;;;;;123.23;36.30;;;19.40;99.90;;;;;;5094698;28;20993;-70
2021/08/22 00:46:49;;;;;;;176.30;43.00;;;19.30;99.90;;;;;;5094753;28;20439;-69
2021/08/22 00:49:18;;;;;;;166.77;44.30;;;19.30;99.90;;;;;;5094567;28;21015;-70
2021/08/22 00:51:46;;;;;;;141.90;43.20;;;19.30;99.90;;;;;;5094716;28;20445;-70
2021/08/22 00:54:14;;;;;;;207.97;47.10;;;19.30;99.90;;;;;;5094220;28;20460;-70
2021/08/22 00:56:43;;;;;;;139.77;43.07;;;19.30;99.90;;;;;;5094262;28;20439;-70
2021/08/22 00:59:12;;;;;;;8.23;7.63;;;19.20;99.90;;;;;;5092971;28;20445;-70
2021/08/22 01:01:42;;;;;;;108.80;37.37;;;19.30;99.90;;;;;;5094084;28;20441;-69
2021/08/22 01:04:18;;;;;;;165.60;43.33;;;19.30;99.90;;;;;;5092849;28;20503;-69
2021/08/22 01:06:57;;;;;;;198.73;49.70;;;19.30;99.90;;;;;;5094644;28;20448;-69
2021/08/22 01:09:30;;;;;;;180.13;44.77;;;19.20;99.90;;;;;;5094274;28;20812;-69
2021/08/22 01:12:03;;;;;;;168.87;43.53;;;19.20;99.90;;;;;;5092782;28;20527;-69
2021/08/22 01:14:35;;;;;;;118.80;45.73;;;19.20;99.90;;;;;;5092740;28;20475;-69
2021/08/22 01:17:04;;;;;;;181.03;45.10;;;19.20;99.90;;;;;;5092832;28;20436;-70
2021/08/22 01:19:45;;;;;;;191.60;46.30;;;19.20;99.90;;;;;;5091737;28;20561;-69
2021/08/22 01:22:16;;;;;;;146.57;51.43;;;19.20;99.90;;;;;;5094283;28;20429;-70
2021/08/22 01:24:45;;;;;;;90.95;25.92;;;19.20;99.90;;;;;;5093779;28;20527;-69
2021/08/22 01:27:15;;;;;;;158.30;45.13;;;19.20;99.90;;;;;;5093808;28;20194;-70
2021/08/22 01:29:49;;;;;;;172.67;45.40;;;19.20;99.90;;;;;;5093947;28;20927;-70
2021/08/22 01:32:18;;;;;;;7.90;7.20;;;19.20;99.90;;;;;;5093650;28;20431;-70
2021/08/22 01:34:48;;;;;;;145.73;41.80;;;19.20;99.90;;;;;;5093941;28;20205;-70
2021/08/22 01:37:19;;;;;;;158.67;43.50;;;19.20;99.90;;;;;;5093557;28;20516;-70
2021/08/22 01:39:47;;;;;;;194.00;42.43;;;19.20;99.90;;;;;;5093300;28;20460;-70
2021/08/22 01:42:16;;;;;;;145.27;45.07;;;19.10;99.90;;;;;;5093681;28;20454;-70
2021/08/22 01:44:44;;;;;;;153.83;37.40;;;19.10;99.90;;;;;;5093503;28;20445;-70
2021/08/22 01:47:13;;;;;;;146.37;44.37;;;19.10;99.90;;;;;;5091229;28;20438;-70
2021/08/22 01:49:41;;;;;;;125.37;46.13;;;19.10;99.90;;;;;;5093668;28;20875;-70
2021/08/22 01:52:12;;;;;;;64.63;21.13;;;19.00;99.90;;;;;;5093091;28;20436;-70
2021/08/22 01:54:43;;;;;;;112.10;39.93;;;19.10;99.90;;;;;;5092086;28;20300;-70
2021/08/22 01:57:11;;;;;;;157.70;44.57;;;19.00;99.90;;;;;;5093601;28;20897;-70
2021/08/22 01:59:40;;;;;;;8.23;7.53;;;19.00;99.90;;;;;;5092237;28;20444;-70
2021/08/22 02:02:08;;;;;;;162.23;41.90;;;19.10;99.90;;;;;;5093288;28;20559;-70
2021/08/22 02:04:45;;;;;;;134.77;43.40;;;19.00;99.90;;;;;;5093426;28;20851;-70
2021/08/22 02:07:18;;;;;;;163.87;42.37;;;19.00;99.90;;;;;;5091454;28;20830;-70
2021/08/22 02:09:54;;;;;;;155.27;46.37;;;19.00;99.90;;;;;;5093288;28;20471;-70
2021/08/22 02:12:23;;;;;;;145.67;46.30;;;18.90;99.90;;;;;;5093632;28;20939;-70
2021/08/22 02:14:58;;;;;;;146.63;46.43;;;18.90;99.90;;;;;;5093506;28;20451;-70
2021/08/22 02:17:42;;;;;;;146.03;52.07;;;18.80;99.90;;;;;;5093441;28;20787;-70
2021/08/22 02:20:13;;;;;;;10.70;9.90;;;18.80;99.90;;;;;;5092310;28;20440;-70
2021/08/22 02:22:46;;;;;;;94.17;45.17;;;18.90;99.90;;;;;;5093148;28;20603;-70
2021/08/22 02:25:15;;;;;;;115.72;42.78;;;18.80;99.90;;;;;;5093882;28;20392;-70
2021/08/22 02:27:45;;;;;;;171.73;45.43;;;18.80;99.90;;;;;;5093284;28;20190;-70
2021/08/22 02:30:14;;;;;;;171.17;46.90;;;18.70;99.90;;;;;;5093066;28;20435;-70
2021/08/22 02:32:43;;;;;;;141.60;49.60;;;18.70;99.90;;;;;;5090679;28;20468;-70
2021/08/22 02:35:11;;;;;;;130.63;52.43;;;18.70;99.90;;;;;;5093209;28;20538;-70
2021/08/22 02:37:39;;;;;;;170.73;53.37;;;18.60;99.90;;;;;;5093245;28;20433;-70
2021/08/22 02:40:10;;;;;;;155.77;45.97;;;18.60;99.90;;;;;;5092783;28;20468;-70
2021/08/22 02:42:38;;;;;;;127.20;53.67;;;18.60;99.90;;;;;;5093364;28;20453;-70
2021/08/22 02:45:08;;;;;;;153.00;50.10;;;18.50;99.90;;;;;;5092796;28;20531;-70
2021/08/22 02:47:36;;;;;;;13.00;12.10;;;18.50;99.90;;;;;;5091973;28;20428;-70
2021/08/22 02:50:06;;;;;;;112.03;46.53;;;18.60;99.90;;;;;;5095151;28;20195;-70
2021/08/22 02:52:34;;;;;;;66.22;40.13;;;18.50;99.90;;;;;;5096446;28;20444;-70
2021/08/22 02:55:02;;;;;;;166.87;47.50;;;18.50;99.90;;;;;;5094228;28;20217;-70
2021/08/22 02:57:31;;;;;;;180.43;47.40;;;18.50;99.90;;;;;;5078296;28;20429;-70
2021/08/22 02:59:59;;;;;;;137.90;52.67;;;18.40;99.90;;;;;;5096487;28;20460;-70
2021/08/22 03:02:27;;;;;;;174.93;54.97;;;18.40;99.90;;;;;;5095970;28;22695;-70
2021/08/22 03:04:56;;;;;;;132.83;45.57;;;18.40;99.90;;;;;;5096747;28;20464;-70
2021/08/22 03:07:24;;;;;;;159.07;45.30;;;18.30;99.90;;;;;;5096471;28;20821;-70
2021/08/22 03:09:52;;;;;;;138.70;47.73;;;18.30;99.90;;;;;;5095072;28;20460;-70
2021/08/22 03:12:20;;;;;;;126.63;53.03;;;18.30;99.90;;;;;;5096643;28;20789;-70
2021/08/22 03:14:49;;;;;;;13.43;12.63;;;18.30;99.90;;;;;;5094066;28;20445;-70
2021/08/22 03:17:17;;;;;;;131.70;42.33;;;18.30;99.90;;;;;;5096355;28;20779;-70
2021/08/22 03:19:46;;;;;;;143.73;48.93;;;18.30;99.90;;;;;;5096082;28;20438;-70
2021/08/22 03:22:14;;;;;;;142.80;48.50;;;18.30;99.90;;;;;;5096097;28;20437;-70
2021/08/22 03:24:42;;;;;;;150.07;47.93;;;18.30;99.90;;;;;;5096507;28;20973;-70
2021/08/22 03:27:10;;;;;;;139.83;47.33;;;18.20;99.90;;;;;;5096365;28;20971;-70
2021/08/22 03:29:38;;;;;;;162.47;51.30;;;18.20;99.90;;;;;;5096041;28;20445;-70
2021/08/22 03:32:09;;;;;;;122.97;48.97;;;18.20;99.90;;;;;;5094576;28;20787;-70
2021/08/22 03:34:37;;;;;;;166.63;45.03;;;18.10;99.90;;;;;;5111892;28;20461;-70
2021/08/22 03:37:05;;;;;;;153.97;49.97;;;18.10;99.90;;;;;;5096068;28;20439;-70
2021/08/22 03:39:33;;;;;;;97.07;49.10;;;18.10;99.90;;;;;;5095952;28;21053;-70
2021/08/22 03:42:01;;;;;;;68.85;33.35;;;18.10;99.90;;;;;;5096081;28;20915;-70
2021/08/22 03:44:29;;;;;;;125.43;46.43;;;18.00;99.90;;;;;;5095120;28;20228;-70
2021/08/22 03:46:57;;;;;;;147.57;48.70;;;18.00;99.90;;;;;;5094359;28;20440;-70
2021/08/22 03:49:27;;;;;;;11.95;11.25;;;18.00;99.90;;;;;;5095044;28;20915;-70
2021/08/22 03:51:55;;;;;;;130.73;42.70;;;18.10;99.90;;;;;;5095380;28;20202;-70
2021/08/22 03:54:23;;;;;;;178.67;43.90;;;18.10;99.90;;;;;;5094521;28;20471;-70
2021/08/22 03:56:51;;;;;;;107.23;47.90;;;18.10;99.90;;;;;;5095476;28;20837;-70
2021/08/22 03:59:19;;;;;;;128.50;47.30;;;18.10;99.90;;;;;;5094308;28;20802;-70
2021/08/22 04:01:47;;;;;;;146.50;47.83;;;18.10;99.90;;;;;;5094888;28;20447;-70
2021/08/22 04:04:31;;;;;;;145.90;46.77;;;18.10;99.90;;;;;;5111106;28;20810;-70
2021/08/22 04:06:59;;;;;;;111.50;46.97;;;18.10;99.90;;;;;;5095271;28;20794;-70
2021/08/22 04:09:30;;;;;;;141.70;50.80;;;18.10;99.90;;;;;;5095163;28;20947;-70
2021/08/22 04:11:59;;;;;;;10.63;9.82;;;18.10;99.90;;;;;;5109818;28;20436;-70
2021/08/22 04:14:27;;;;;;;90.50;40.53;;;18.20;99.90;;;;;;5092667;28;20211;-70
2021/08/22 04:16:55;;;;;;;117.60;44.37;;;18.20;99.90;;;;;;5095442;28;20464;-70
2021/08/22 04:19:24;;;;;;;115.80;46.30;;;18.20;99.90;;;;;;5094789;28;20452;-70
2021/08/22 04:21:53;;;;;;;107.87;43.13;;;18.20;99.90;;;;;;5095287;28;20437;-70
2021/08/22 04:24:23;;;;;;;108.83;44.37;;;18.10;99.90;;;;;;5095216;28;20460;-70
2021/08/22 04:26:52;;;;;;;169.10;47.93;;;18.10;99.90;;;;;;5110623;28;20423;-70
2021/08/22 04:29:20;;;;;;;125.00;50.30;;;18.10;99.90;;;;;;5093785;28;20422;-70
2021/08/22 04:31:48;;;;;;;108.37;50.87;;;18.10;99.90;;;;;;5094711;28;20428;-70
2021/08/22 04:34:16;;;;;;;154.20;51.17;;;18.10;99.90;;;;;;5091136;28;20457;-70
2021/08/22 04:36:44;;;;;;;123.10;45.90;;;18.10;99.90;;;;;;5094665;28;20428;-70
2021/08/22 04:39:15;;;;;;;15.18;14.27;;;18.10;99.90;;;;;;5094221;28;20441;-70
2021/08/22 04:41:44;;;;;;;67.83;39.33;;;18.10;99.90;;;;;;5094867;28;20225;-70
2021/08/22 04:44:12;;;;;;;91.83;44.60;;;18.10;99.90;;;;;;5094490;28;20460;-70
2021/08/22 04:46:40;;;;;;;11.73;11.00;;;18.10;99.90;;;;;;5093588;28;20935;-70
2021/08/22 04:49:08;;;;;;;133.03;46.47;;;18.20;99.90;;;;;;5094416;28;20240;-70
2021/08/22 04:51:37;;;;;;;158.43;46.30;;;18.20;99.90;;;;;;5092893;28;20907;-70
2021/08/22 04:54:05;;;;;;;133.50;51.23;;;18.20;99.90;;;;;;5094525;28;20448;-70
2021/08/22 04:56:34;;;;;;;112.90;50.30;;;18.20;99.90;;;;;;5094782;28;20444;-70
2021/08/22 04:59:02;;;;;;;133.37;49.83;;;18.10;99.90;;;;;;5094317;28;20440;-71
2021/08/22 05:01:30;;;;;;;117.03;50.57;;;18.10;99.90;;;;;;5091876;28;20468;-71
2021/08/22 05:03:59;;;;;;;151.47;43.97;;;18.10;99.90;;;;;;5094081;28;20466;-71
2021/08/22 05:06:27;;;;;;;132.03;47.20;;;18.00;99.90;;;;;;5094329;28;20528;-71
2021/08/22 05:08:55;;;;;;;128.57;46.27;;;18.00;99.90;;;;;;5092845;28;20437;-71
2021/08/22 05:11:23;;;;;;;108.87;45.27;;;18.00;99.90;;;;;;5093680;28;20428;-71
2021/08/22 05:13:52;;;;;;;44.65;19.98;;;18.00;99.90;;;;;;5093229;28;20799;-71
2021/08/22 05:16:20;;;;;;;116.57;47.20;;;18.00;99.90;;;;;;5094318;28;20194;-71
2021/08/22 05:18:48;;;;;;;101.70;39.47;;;18.00;99.90;;;;;;5091576;28;20452;-71
2021/08/22 05:21:17;;;;;;;117.00;38.87;;;18.00;99.90;;;;;;5094200;28;20560;-71
2021/08/22 05:23:45;;;;;;;136.47;43.10;;;17.90;99.90;;;;;;5093838;28;20463;-71
2021/08/22 05:26:13;;;;;;;97.63;42.23;;;17.90;99.90;;;;;;5094077;28;20822;-71
2021/08/22 05:28:41;;;;;;;90.33;39.20;;;17.90;99.90;;;;;;5092476;28;20433;-72
2021/08/22 05:31:10;;;;;;;86.13;34.20;;;17.90;99.90;;;;;;5093702;28;20437;-71
2021/08/22 05:33:38;;;;;;;96.77;39.97;;;17.90;99.90;;;;;;5092230;28;20471;-71
2021/08/22 05:36:17;;;;;;;61.05;29.45;;;17.80;99.90;;;;;;5093723;28;20457;-71
2021/08/22 05:38:46;;;;;;;49.57;38.23;;;17.80;99.90;;;;;;5091379;28;20187;-71
2021/08/22 05:41:14;;;;;;;101.27;38.17;;;17.80;99.90;;;;;;5093674;28;20476;-71
2021/08/22 05:43:42;;;;;;;11.90;10.70;;;17.80;99.90;;;;;;5092538;28;20442;-71
2021/08/22 05:46:12;;;;;;;91.37;37.03;;;17.90;99.90;;;;;;5093461;28;20218;-71
2021/08/22 05:48:40;;;;;;;121.03;34.67;;;17.90;99.90;;;;;;5093419;28;20509;-71
2021/08/22 05:51:14;;;;;;;91.67;41.67;;;17.80;99.90;;;;;;5093814;28;20919;-71
2021/08/22 05:53:42;;;;;;;93.63;37.10;;;17.80;99.90;;;;;;5093375;28;20474;-71
2021/08/22 05:56:11;;;;;;;92.30;37.70;;;17.80;99.90;;;;;;5109138;28;20447;-71
2021/08/22 05:58:39;;;;;;;133.53;36.70;;;17.80;99.90;;;;;;5093388;28;20542;-71
2021/08/22 06:01:07;;;;;;;120.40;38.60;;;17.80;99.90;;;;;;5093791;28;20472;-71
2021/08/22 06:03:37;;;;;;;102.53;38.27;;;17.70;99.90;;;;;;5091078;28;20525;-70
2021/08/22 06:06:06;;;;;;;11.80;10.80;;;17.70;99.90;;;;;;5093756;28;20443;-70
2021/08/22 06:08:36;;;;;;;96.03;39.87;;;17.80;99.90;;;;;;5092416;28;20301;-71
2021/08/22 06:11:04;;;;;;;73.53;32.73;;;17.80;99.90;;;;;;5092829;28;20536;-70
2021/08/22 06:13:32;;;;;;;98.37;39.30;;;17.80;99.90;;;;;;5093545;28;20448;-70
2021/08/22 06:16:00;;;;;;;125.87;39.13;;;17.80;99.90;;;;;;5093173;28;20447;-70
2021/08/22 06:18:29;;;;;;;88.47;40.20;;;17.80;99.90;;;;;;5091840;28;20968;-71
2021/08/22 06:20:58;;;;;;;103.87;34.93;;;17.70;99.90;;;;;;5092058;28;20443;-72
2021/08/22 06:23:26;;;;;;;138.70;40.23;;;17.70;99.90;;;;;;5094814;28;20897;-71
2021/08/22 06:25:54;;;;;;;70.70;37.10;;;17.70;99.90;;;;;;5095178;28;20444;-70
2021/08/22 06:28:22;;;;;;;93.23;39.30;;;17.70;99.90;;;;;;5097249;28;20510;-71
2021/08/22 06:30:51;;;;;;;106.33;38.13;;;17.70;99.90;;;;;;5096028;28;20441;-71
2021/08/22 06:33:19;;;;;;;96.53;37.17;;;17.70;99.90;;;;;;5097391;28;20456;-71
2021/08/22 06:35:47;;;;;;;11.32;10.43;;;17.70;99.90;;;;;;5095195;28;20455;-70
2021/08/22 06:38:16;;;;;;;93.37;37.10;;;17.70;99.90;;;;;;5097258;28;20186;-71
2021/08/22 06:44:29;;;;;;;148.13;34.33;;;17.70;99.90;;;;;;5101662;28;20241;-71
2021/08/22 06:46:57;;;;;;;94.30;41.33;;;17.70;99.90;;;;;;5097062;28;20435;-70
2021/08/22 06:49:25;;;;;;;90.87;37.87;;;17.70;99.90;;;;;;5093200;28;20452;-71
2021/08/22 06:51:53;;;;;;;140.53;41.13;;;17.60;99.90;;;;;;5096836;28;20456;-71
2021/08/22 06:54:22;;;;;;;139.70;41.87;;;17.60;99.90;;;;;;5096158;28;21000;-72
2021/08/22 06:56:55;;;;;;;104.10;35.33;;;17.60;99.90;;;;;;5095434;28;20453;-72
2021/08/22 06:59:23;;;;;;;107.53;39.07;;;17.60;99.90;;;;;;5096688;28;20523;-72
2021/08/22 07:01:52;;;;;;;107.47;37.83;;;17.60;99.90;;;;;;5096654;28;20803;-71
2021/08/22 07:04:20;;;;;;;66.00;25.30;;;17.60;99.90;;;;;;5095312;28;20822;-71
2021/08/22 07:06:48;;;;;;;94.37;36.93;;;17.60;99.90;;;;;;5096454;28;20421;-72
2021/08/22 07:09:16;;;;;;;121.17;39.60;;;17.60;99.90;;;;;;5094219;28;20445;-73
2021/08/22 07:11:46;;;;;;;117.40;37.30;;;17.60;99.90;;;;;;5096462;28;20428;-72
2021/08/22 07:14:15;;;;;;;80.93;38.73;;;17.60;99.90;;;;;;5096803;28;20822;-73
2021/08/22 07:16:43;;;;;;;107.90;40.43;;;17.60;99.90;;;;;;5096501;28;20466;-72
2021/08/22 07:19:11;;;;;;;73.50;36.90;;;17.60;99.90;;;;;;5096365;28;20479;-73
2021/08/22 07:21:39;;;;;;;76.03;37.67;;;17.60;99.90;;;;;;5096531;28;20567;-72
2021/08/22 07:24:08;;;;;;;77.23;37.07;;;17.60;99.90;;;;;;5096434;28;20457;-71
2021/08/22 07:26:36;;;;;;;92.17;38.60;;;17.60;99.90;;;;;;5094975;28;20943;-71
2021/08/22 07:29:05;;;;;;;112.47;36.53;;;17.60;99.90;;;;;;5094615;28;20448;-71
2021/08/22 07:31:33;;;;;;;122.13;42.33;;;17.60;99.90;;;;;;5096125;28;20436;-71
2021/08/22 07:34:02;;;;;;;33.25;22.23;;;17.60;99.90;;;;;;5095734;28;20494;-70
2021/08/22 07:36:30;;;;;;;109.80;33.63;;;17.60;99.90;;;;;;5095081;28;20226;-71
2021/08/22 07:38:58;;;;;;;69.37;35.17;;;17.60;99.90;;;;;;5096205;28;20791;-70
2021/08/22 07:41:26;;;;;;;17.20;15.68;;;17.60;99.90;;;;;;5094940;28;20446;-71
2021/08/22 07:43:54;;;;;;;148.97;36.63;;;17.70;99.90;;;;;;5096017;28;20210;-71
2021/08/22 07:46:24;;;;;;;128.57;41.17;;;17.70;99.90;;;;;;5094750;28;20449;-71
2021/08/22 07:48:52;;;;;;;101.10;36.40;;;17.70;99.90;;;;;;5093248;28;20486;-71
2021/08/22 07:51:21;;;;;;;75.77;35.77;;;17.70;99.90;;;;;;5095740;28;20783;-71
2021/08/22 07:53:49;;;;;;;92.43;35.40;;;17.70;99.90;;;;;;5094824;28;20480;-71
2021/08/22 07:56:17;;;;;;;96.27;35.53;;;17.70;99.90;;;;;;5096079;28;20954;-71
2021/08/22 07:58:45;;;;;;;106.53;39.27;;;17.70;99.90;;;;;;5096851;28;20519;-70
2021/08/22 08:01:14;;;;;;;90.70;41.83;;;17.70;99.90;;;;;;5096660;28;20539;-71
2021/08/22 08:03:44;;;;;;;45.72;26.80;;;17.70;99.90;;;;;;5095990;28;20454;-71
2021/08/22 08:06:13;;;;;;;100.87;39.20;;;17.70;99.90;;;;;;5094930;28;20255;-71
2021/08/22 08:08:47;;;;;;;117.10;41.90;;;17.70;99.90;;;;;;5094726;28;20448;-71
2021/08/22 08:11:16;;;;;;;17.98;16.48;;;17.70;99.90;;;;;;5093884;28;20444;-70
2021/08/22 08:13:45;;;;;;;92.13;34.87;;;17.80;99.90;;;;;;5095819;28;20199;-71
2021/08/22 08:16:23;;;;;;;115.50;38.07;;;17.80;99.90;;;;;;5093860;28;20523;-71
2021/08/22 08:18:56;;;;;;;99.13;34.13;;;17.80;99.90;;;;;;5094500;28;20839;-71
2021/08/22 08:21:27;;;;;;;94.10;41.10;;;17.80;99.90;;;;;;5095778;28;20497;-71
2021/08/22 08:23:58;;;;;;;110.10;42.07;;;17.80;99.90;;;;;;5095895;28;20453;-72
2021/08/22 08:26:26;;;;;;;86.13;34.43;;;17.80;99.90;;;;;;5094712;28;20445;-72
2021/08/22 08:28:57;;;;;;;111.37;36.90;;;17.90;99.90;;;;;;5093930;28;20468;-72
2021/08/22 08:31:25;;;;;;;130.43;39.57;;;17.90;99.90;;;;;;5096546;28;20444;-71
2021/08/22 08:33:55;;;;;;;34.97;21.45;;;17.90;99.90;;;;;;5095233;28;20433;-71
2021/08/22 08:36:24;;;;;;;83.90;37.80;;;18.00;99.90;;;;;;5095846;28;20190;-71
2021/08/22 08:38:52;;;;;;;43.77;35.37;;;18.00;99.90;;;;;;5095921;28;20444;-72
2021/08/22 08:41:20;;;;;;;110.03;44.43;;;18.00;99.90;;;;;;5095530;28;20407;-72
2021/08/22 08:43:48;;;;;;;82.27;38.70;;;18.00;99.90;;;;;;5095450;28;20484;-72
2021/08/22 08:46:17;;;;;;;85.27;34.97;;;18.10;99.90;;;;;;5095220;28;20448;-71
2021/08/22 08:48:47;;;;;;;78.87;37.47;;;18.10;99.90;;;;;;5095034;28;20506;-72
2021/08/22 08:51:21;;;;;;;66.03;35.67;;;18.10;99.90;;;;;;5093916;28;20453;-72
2021/08/22 08:53:49;;;;;;;80.40;38.50;;;18.10;99.90;;;;;;5095443;28;20545;-72
2021/08/22 08:56:18;;;;;;;70.37;34.93;;;18.10;99.90;;;;;;5095553;28;20425;-72
2021/08/22 08:58:46;;;;;;;75.43;39.67;;;18.20;99.90;;;;;;5095705;28;20795;-72
2021/08/22 09:01:14;;;;;;;75.03;37.70;;;18.20;99.90;;;;;;5095332;28;20436;-72
2021/08/22 09:04:09;;;;;;;77.53;38.13;;;18.20;99.90;;;;;;5094488;28;20460;-71
2021/08/22 09:07:22;;;;;;;104.60;39.80;;;18.30;99.90;;;;;;5080231;28;20440;-72
2021/08/22 09:10:23;;;;;;;25.77;23.48;;;18.30;99.90;;;;;;5092751;28;20799;-71
2021/08/22 09:13:27;;;;;;;67.90;34.83;;;18.40;99.90;;;;;;5095345;28;20636;-71
2021/08/22 09:16:38;;;;;;;55.77;40.20;;;18.40;99.90;;;;;;5090124;28;20415;-72
2021/08/22 09:19:43;;;;;;;95.17;40.17;;;18.50;99.90;;;;;;5093530;28;20502;-72
2021/08/22 09:22:49;;;;;;;90.80;38.37;;;18.50;99.90;;;;;;5109442;28;20501;-72
2021/08/22 09:25:56;;;;;;;60.43;34.93;;;18.50;99.90;;;;;;5093866;28;20520;-72
2021/08/22 09:29:13;;;;;;;61.73;35.03;;;18.50;99.90;;;;;;5093842;28;20449;-72
2021/08/22 09:32:19;;;;;;;85.03;40.50;;;18.60;99.90;;;;;;5093032;28;20444;-72
2021/08/22 09:35:34;;;;;;;27.10;24.85;;;18.60;99.90;;;;;;5091294;28;20470;-72
2021/08/22 09:38:34;;;;;;;65.03;41.90;;;18.70;99.90;;;;;;5092110;28;20197;-71
2021/08/22 09:41:39;;;;;;;31.00;28.20;;;18.70;99.90;;;;;;5093203;28;20437;-71
2021/08/22 09:44:46;;;;;;;74.10;35.03;;;18.80;99.90;;;;;;5094029;28;20546;-71
2021/08/22 09:48:17;;;;;;;119.57;43.90;;;18.80;99.90;;;;;;5097380;28;20413;-72
2021/08/22 09:51:22;;;;;;;123.57;41.90;;;18.80;99.90;;;;;;4976204;28;20442;-72
2021/08/22 09:54:25;;;;;;;96.30;46.03;;;18.80;99.90;;;;;;5025617;28;20541;-72
2021/08/22 09:57:42;;;;;;;96.90;44.70;;;18.80;99.90;;;;;;5094644;28;20456;-72
2021/08/22 10:00:49;;;;;;;94.33;47.57;;;18.90;99.90;;;;;;5095486;28;21162;-71
2021/08/22 10:03:47;;;;;;;27.00;24.70;;;18.90;99.90;;;;;;5090176;28;20824;-71
2021/08/22 10:06:46;;;;;;;68.77;41.53;;;18.90;99.90;;;;;;5090471;28;20464;-71
2021/08/22 10:09:38;;;;;;;28.45;25.95;;;19.00;99.90;;;;;;5088281;28;20564;-72
2021/08/22 10:12:06;;;;;;;101.60;41.97;;;19.00;99.90;;;;;;5093363;28;20182;-72
2021/08/22 10:14:38;;;;;;;86.47;46.90;;;19.10;99.90;;;;;;5093437;28;20547;-72
2021/08/22 10:17:07;;;;;;;107.53;43.97;;;19.10;99.90;;;;;;5093719;28;20543;-72
2021/08/22 10:19:36;;;;;;;83.03;43.23;;;19.10;99.90;;;;;;5093912;28;20494;-71
2021/08/22 10:22:13;;;;;;;109.77;42.40;;;19.10;99.90;;;;;;5093400;28;20455;-71
2021/08/22 10:24:48;;;;;;;98.63;45.87;;;19.00;99.90;;;;;;5093811;28;20456;-71
2021/08/22 10:27:46;;;;;;;73.30;45.03;;;19.00;99.90;;;;;;5092535;28;20452;-72
2021/08/22 10:30:19;;;;;;;71.43;44.10;;;19.00;99.90;;;;;;5093190;28;20435;-72
2021/08/22 10:33:16;;;;;;;46.55;32.63;;;19.00;99.90;;;;;;5093509;28;20434;-72
2021/08/22 10:35:45;;;;;;;105.20;43.97;;;19.10;99.90;;;;;;5093074;28;20190;-72
2021/08/22 10:38:25;;;;;;;125.17;49.80;;;19.00;99.90;;;;;;5093077;28;20890;-72
2021/08/22 10:40:54;;;;;;;70.77;42.23;;;19.00;99.90;;;;;;5093131;28;20443;-71
2021/08/22 10:43:40;;;;;;;104.23;44.13;;;19.00;99.90;;;;;;5093043;28;20480;-72
2021/08/22 10:46:09;;;;;;;131.73;44.40;;;19.00;99.90;;;;;;5082512;28;20977;-72
2021/08/22 10:48:51;;;;;;;82.90;46.73;;;19.10;99.90;;;;;;5093306;28;20447;-71
2021/08/22 10:51:21;;;;;;;88.57;51.30;;;19.10;99.90;;;;;;5091804;28;20928;-72
2021/08/22 10:53:51;;;;;;;116.20;48.70;;;19.10;99.90;;;;;;5091495;28;21041;-72
2021/08/22 10:56:59;;;;;;;122.90;44.90;;;19.20;99.90;;;;;;5093702;28;20523;-72
2021/08/22 10:59:27;;;;;;;104.63;46.40;;;19.20;99.90;;;;;;5093530;28;20453;-72
2021/08/22 11:02:10;;;;;;;99.13;45.60;;;19.20;99.90;;;;;;5092580;28;20432;-71
2021/08/22 11:04:42;;;;;;;87.47;43.70;;;19.20;99.90;;;;;;5090936;28;20530;-71
2021/08/22 11:07:25;;;;;;;72.97;46.40;;;19.20;99.90;;;;;;5093134;28;20903;-72
2021/08/22 11:09:53;;;;;;;31.05;28.30;;;19.20;99.90;;;;;;5095051;28;20495;-71
2021/08/22 11:12:33;;;;;;;87.27;49.50;;;19.40;99.90;;;;;;5096759;28;20273;-72
2021/08/22 11:15:07;;;;;;;82.70;46.03;;;19.40;99.90;;;;;;5095590;28;20433;-72
2021/08/22 11:17:36;;;;;;;114.27;48.47;;;19.40;99.90;;;;;;5095138;28;20445;-72
2021/08/22 11:20:11;;;;;;;79.77;48.00;;;19.40;99.90;;;;;;5096235;28;20431;-72
2021/08/22 11:22:42;;;;;;;86.47;44.17;;;19.40;99.90;;;;;;5094170;28;20958;-72
2021/08/22 11:25:11;;;;;;;95.00;48.30;;;19.40;99.90;;;;;;5094972;28;20465;-72
2021/08/22 11:28:11;;;;;;;124.23;42.97;;;19.40;99.90;;;;;;5096951;28;20413;-72
2021/08/22 11:34:27;;;;;;;29.52;26.73;;;19.50;99.90;;;;;;5090426;28;20437;-71
2021/08/22 11:36:55;;;;;;;72.03;42.03;;;19.60;99.90;;;;;;5094761;28;20201;-71
2021/08/22 11:39:24;;;;;;;28.80;26.30;;;19.60;99.90;;;;;;5094629;28;20452;-72
2021/08/22 11:41:52;;;;;;;123.73;50.60;;;19.80;99.90;;;;;;5095842;28;20187;-72
2021/08/22 11:44:22;;;;;;;103.57;48.90;;;19.80;99.90;;;;;;5095219;28;20483;-72
2021/08/22 11:46:52;;;;;;;99.97;45.40;;;19.80;99.90;;;;;;5096192;28;20528;-72
2021/08/22 11:49:21;;;;;;;103.93;45.00;;;19.80;99.90;;;;;;5095819;28;20451;-72
2021/08/22 11:51:51;;;;;;;128.07;46.93;;;19.80;99.90;;;;;;5095558;28;20539;-72
2021/08/22 11:54:20;;;;;;;101.00;45.57;;;19.90;99.90;;;;;;5094273;28;20467;-72
2021/08/22 11:56:50;;;;;;;90.00;48.83;;;19.90;99.90;;;;;;5095737;28;20440;-72
2021/08/22 11:59:25;;;;;;;102.33;49.17;;;19.90;99.90;;;;;;5094939;28;21007;-72
2021/08/22 12:02:18;;;;;;;28.98;26.38;;;19.90;99.90;;;;;;5095373;28;20512;-72
2021/08/22 12:04:47;;;;;;;83.93;50.73;;;19.90;99.90;;;;;;5095368;28;20281;-72
2021/08/22 12:07:20;;;;;;;89.33;46.60;;;19.90;99.90;;;;;;5095191;28;20444;-72
2021/08/22 12:09:51;;;;;;;89.10;45.47;;;19.90;99.90;;;;;;5095291;28;20419;-72
2021/08/22 12:12:22;;;;;;;102.70;44.63;;;19.90;99.90;;;;;;5094175;28;20437;-72
2021/08/22 12:14:50;;;;;;;110.87;47.33;;;19.90;99.90;;;;;;5094022;28;20445;-72
2021/08/22 12:17:23;;;;;;;114.80;51.60;;;19.90;99.90;;;;;;5092417;28;20445;-72
2021/08/22 12:19:52;;;;;;;128.67;44.07;;;19.90;99.90;;;;;;5093800;28;20458;-72
2021/08/22 12:22:28;;;;;;;94.83;39.97;;;19.90;99.90;;;;;;5094890;28;20912;-72
2021/08/22 12:24:56;;;;;;;52.77;39.13;;;20.00;99.90;;;;;;5095250;28;20487;-71
2021/08/22 12:27:34;;;;;;;115.40;46.03;;;20.00;99.90;;;;;;5095206;28;20438;-71
2021/08/22 12:30:07;;;;;;;129.80;39.73;;;20.00;99.90;;;;;;5095240;28;20478;-72
2021/08/22 12:32:36;;;;;;;20.88;19.08;;;20.00;99.90;;;;;;5094182;28;20475;-72
2021/08/22 12:35:06;;;;;;;95.13;42.73;;;20.10;99.90;;;;;;5094492;28;20533;-72
2021/08/22 12:37:34;;;;;;;20.73;19.00;;;20.20;99.90;;;;;;5094021;28;20990;-71
2021/08/22 12:40:05;;;;;;;77.93;42.90;;;20.30;99.90;;;;;;5094912;28;20444;-71
2021/08/22 12:42:35;;;;;;;74.67;41.00;;;20.30;99.90;;;;;;5095045;28;20428;-71
2021/08/22 12:45:05;;;;;;;68.53;39.97;;;20.30;99.90;;;;;;5094580;28;20840;-71
2021/08/22 12:47:34;;;;;;;114.70;45.83;;;20.40;99.90;;;;;;5095087;28;20914;-71
2021/08/22 12:50:03;;;;;;;75.33;36.00;;;20.40;99.90;;;;;;5094480;28;20447;-72
2021/08/22 12:52:31;;;;;;;77.60;40.50;;;20.40;99.90;;;;;;5094181;28;20813;-72
2021/08/22 12:54:59;;;;;;;107.40;46.47;;;20.40;99.90;;;;;;5094046;28;20463;-72
2021/08/22 12:57:27;;;;;;;103.97;43.27;;;20.50;99.90;;;;;;5093033;28;20491;-72
2021/08/22 12:59:57;;;;;;;72.23;33.93;;;20.50;99.90;;;;;;5093225;28;20444;-72